Time;durP1;ratioP1;P1;durP2;ratioP2;P2;SDS_P1;SDS_P2;PMS_P1;PMS_P2;Temp;Humidity;BMP_temperature;BMP_pressure;BME280_temperature;BME280_humidity;BME280_pressure;Samples;Min_cycle;Max_cycle;Signal;HPM_P1;HPM_P2
2021/01/18 00:01:06;;;;;;;71.18;30.25;;;4.20;1.00;;;;;;5011350;28;20284;-65
2021/01/18 00:03:32;;;;;;;50.05;24.52;;;4.20;1.00;;;;;;5011108;28;20217;-64
2021/01/18 00:05:58;;;;;;;79.18;29.20;;;4.20;1.00;;;;;;5011494;28;20198;-64
2021/01/18 00:08:25;;;;;;;63.00;30.55;;;4.20;1.00;;;;;;5011226;28;20208;-64
2021/01/18 00:10:51;;;;;;;50.70;25.42;;;4.20;1.00;;;;;;5010960;28;20658;-64
2021/01/18 00:13:18;;;;;;;78.72;33.85;;;4.20;1.00;;;;;;5010886;28;20671;-64
2021/01/18 00:15:44;;;;;;;74.60;30.80;;;4.20;1.00;;;;;;5010751;28;20257;-64
2021/01/18 00:18:10;;;;;;;72.65;30.23;;;4.20;1.00;;;;;;5011277;28;20205;-65
2021/01/18 00:20:36;;;;;;;96.95;35.65;;;4.30;1.00;;;;;;5010885;28;20567;-65
2021/01/18 00:23:03;;;;;;;63.25;30.02;;;4.20;1.00;;;;;;5010477;28;20213;-65
2021/01/18 00:25:29;;;;;;;67.85;29.90;;;4.20;1.00;;;;;;5011028;28;20206;-65
2021/01/18 00:27:56;;;;;;;74.53;31.08;;;4.20;1.00;;;;;;5010583;28;20674;-65
2021/01/18 00:30:23;;;;;;;67.77;29.50;;;4.20;1.00;;;;;;4992567;28;530992;-65
2021/01/18 00:32:50;;;;;;;55.17;27.75;;;4.20;1.00;;;;;;5011776;28;20264;-65
2021/01/18 00:35:18;;;;;;;66.20;26.85;;;4.20;1.00;;;;;;5012222;28;20198;-65
2021/01/18 00:37:46;;;;;;;54.40;24.88;;;4.20;1.00;;;;;;5012161;28;20252;-65
2021/01/18 00:40:13;;;;;;;20.02;13.15;;;4.20;1.00;;;;;;5011875;28;20244;-65
2021/01/18 00:42:40;;;;;;;14.70;9.88;;;4.10;1.00;;;;;;5011622;28;20217;-66
2021/01/18 00:45:09;;;;;;;17.98;8.73;;;4.00;99.90;;;;;;5011765;28;20200;-66
2021/01/18 00:47:42;;;;;;;19.35;9.63;;;3.90;99.90;;;;;;5015548;28;20203;-65
2021/01/18 00:50:11;;;;;;;16.67;10.82;;;3.80;1.00;;;;;;5015199;28;20226;-66
2021/01/18 00:52:40;;;;;;;17.17;8.43;;;3.80;1.00;;;;;;5014968;28;20657;-66
2021/01/18 00:55:07;;;;;;;17.00;6.97;;;3.80;1.00;;;;;;5015057;28;20713;-65
2021/01/18 00:57:34;;;;;;;8.98;5.40;;;3.70;1.00;;;;;;5014846;28;20205;-66
2021/01/18 01:00:00;;;;;;;12.77;6.95;;;3.70;1.00;;;;;;5015157;28;20221;-65
2021/01/18 01:02:27;;;;;;;11.25;4.90;;;3.70;1.00;;;;;;5014469;28;20225;-66
2021/01/18 01:04:53;;;;;;;17.58;7.05;;;3.60;1.00;;;;;;5014884;28;20206;-66
2021/01/18 01:07:19;;;;;;;17.08;7.97;;;3.60;1.00;;;;;;5014646;28;20247;-65
2021/01/18 01:09:46;;;;;;;17.55;7.57;;;3.60;1.00;;;;;;5014689;28;20729;-65
2021/01/18 01:12:12;;;;;;;32.40;11.20;;;3.60;9.30;;;;;;5014674;28;20218;-65
2021/01/18 01:14:38;;;;;;;22.05;10.40;;;3.60;99.90;;;;;;5014484;28;20198;-65
2021/01/18 01:17:04;;;;;;;23.50;12.90;;;3.60;99.90;;;;;;5014750;28;20200;-66
2021/01/18 01:19:31;;;;;;;28.77;14.15;;;3.60;99.90;;;;;;5014424;28;20229;-66
2021/01/18 01:21:57;;;;;;;46.42;17.38;;;3.60;99.90;;;;;;5014434;28;20268;-66
2021/01/18 01:24:23;;;;;;;33.05;13.35;;;3.70;99.90;;;;;;5014253;28;20205;-66
2021/01/18 01:26:50;;;;;;;37.92;16.35;;;3.70;99.90;;;;;;5016412;28;20197;-66
2021/01/18 01:29:16;;;;;;;25.08;13.95;;;3.80;99.90;;;;;;5014444;28;20209;-66
2021/01/18 01:31:42;;;;;;;32.88;18.45;;;3.80;99.90;;;;;;5014051;28;20205;-66
2021/01/18 01:34:08;;;;;;;24.67;16.00;;;3.90;99.90;;;;;;5014168;28;20201;-65
2021/01/18 01:36:42;;;;;;;33.70;20.55;;;3.80;99.90;;;;;;5014133;28;20206;-65
2021/01/18 01:39:08;;;;;;;48.80;23.65;;;3.90;1.00;;;;;;5013950;28;20207;-66
2021/01/18 01:41:34;;;;;;;40.67;22.30;;;3.80;1.00;;;;;;5013989;28;20276;-65
2021/01/18 01:44:00;;;;;;;38.55;24.25;;;3.80;1.00;;;;;;5014016;28;20205;-66
2021/01/18 01:46:26;;;;;;;44.88;26.20;;;3.80;1.00;;;;;;5014139;28;20200;-65
2021/01/18 01:48:52;;;;;;;39.55;22.92;;;3.80;1.00;;;;;;5013831;28;20198;-65
2021/01/18 01:51:19;;;;;;;47.17;25.58;;;3.80;1.00;;;;;;5013821;28;20602;-65
2021/01/18 01:53:46;;;;;;;62.53;26.83;;;3.80;1.00;;;;;;5013319;28;20239;-64
2021/01/18 01:56:13;;;;;;;63.38;29.80;;;3.80;1.00;;;;;;5013984;28;20252;-65
2021/01/18 01:58:40;;;;;;;56.78;27.35;;;3.80;1.00;;;;;;5013023;28;20578;-65
2021/01/18 02:01:06;;;;;;;44.50;23.20;;;3.80;1.00;;;;;;5013711;28;20227;-65
2021/01/18 02:03:40;;;;;;;44.30;25.40;;;3.90;19.00;;;;;;5013378;28;20198;-65
2021/01/18 02:06:07;;;;;;;49.58;23.38;;;3.80;32.10;;;;;;5013545;28;20610;-65
2021/01/18 02:08:33;;;;;;;48.00;23.98;;;3.90;48.70;;;;;;5013930;28;20206;-65
2021/01/18 02:11:01;;;;;;;45.97;22.60;;;3.90;57.40;;;;;;5013632;28;20221;-65
2021/01/18 02:13:37;;;;;;;53.05;19.48;;;3.80;38.70;;;;;;5013140;28;20212;-65
2021/01/18 02:16:08;;;;;;;51.47;22.02;;;3.80;32.00;;;;;;5013406;28;20262;-65
2021/01/18 02:18:52;;;;;;;51.67;24.75;;;3.80;50.50;;;;;;5013475;28;20280;-65
2021/01/18 02:22:10;;;;;;;40.05;18.75;;;3.80;25.00;;;;;;5013314;28;20305;-65
2021/01/18 02:25:12;;;;;;;35.15;19.85;;;3.80;17.40;;;;;;5013212;28;20202;-65
2021/01/18 02:28:09;;;;;;;46.58;18.13;;;3.80;1.00;;;;;;5010204;28;20206;-65
2021/01/18 02:31:29;;;;;;;37.47;18.90;;;3.80;1.00;;;;;;5013294;28;20364;-65
2021/01/18 02:34:21;;;;;;;33.80;19.53;;;3.70;1.00;;;;;;5012004;28;20485;-65
2021/01/18 02:37:00;;;;;;;28.45;19.35;;;3.70;1.00;;;;;;5012196;28;20419;-65
2021/01/18 02:39:41;;;;;;;31.20;18.60;;;3.70;1.00;;;;;;5011694;28;20424;-67
2021/01/18 02:42:11;;;;;;;30.80;19.23;;;3.70;1.00;;;;;;5012061;28;20774;-65
2021/01/18 02:44:39;;;;;;;29.30;17.77;;;3.80;1.00;;;;;;5011608;28;20788;-65
2021/01/18 02:47:07;;;;;;;31.23;18.08;;;3.80;1.00;;;;;;5012031;28;20786;-65
2021/01/18 02:49:34;;;;;;;33.05;19.10;;;3.80;1.00;;;;;;5011639;28;20416;-65
2021/01/18 02:52:06;;;;;;;31.02;16.42;;;3.80;1.00;;;;;;5011507;28;20412;-65
2021/01/18 02:54:32;;;;;;;24.03;16.07;;;3.80;1.00;;;;;;5011671;28;20434;-65
2021/01/18 02:56:59;;;;;;;23.48;14.55;;;3.90;99.90;;;;;;5011811;28;20413;-65
2021/01/18 02:59:26;;;;;;;29.65;15.93;;;3.90;99.90;;;;;;5011790;28;20416;-65
2021/01/18 03:02:13;;;;;;;31.20;17.95;;;3.60;99.90;;;;;;5011468;28;20432;-65
2021/01/18 03:05:00;;;;;;;33.17;19.02;;;3.70;99.90;;;;;;5011433;28;20416;-65
2021/01/18 03:07:35;;;;;;;36.63;19.83;;;3.60;99.90;;;;;;5011711;28;20462;-65
2021/01/18 03:10:05;;;;;;;32.08;21.35;;;3.70;99.90;;;;;;5011281;28;20510;-65
2021/01/18 03:12:39;;;;;;;35.60;20.50;;;3.70;99.90;;;;;;5011354;28;20413;-65
2021/01/18 03:15:11;;;;;;;35.25;21.73;;;3.70;99.90;;;;;;5011269;28;20418;-65
2021/01/18 03:17:40;;;;;;;36.17;21.75;;;3.80;99.90;;;;;;5011544;28;20837;-64
2021/01/18 03:20:08;;;;;;;34.53;22.27;;;3.80;99.90;;;;;;5011178;28;20409;-65
2021/01/18 03:22:36;;;;;;;32.73;22.10;;;3.90;99.90;;;;;;5011161;28;20511;-65
2021/01/18 03:25:03;;;;;;;37.93;21.90;;;3.90;21.30;;;;;;5010742;28;20413;-65
2021/01/18 03:27:31;;;;;;;38.43;23.50;;;3.90;31.80;;;;;;5011138;28;20512;-65
2021/01/18 03:29:57;;;;;;;37.93;25.40;;;4.00;1.00;;;;;;5010981;28;20478;-65
2021/01/18 03:32:23;;;;;;;37.63;24.75;;;3.90;1.00;;;;;;5011319;28;20412;-65
2021/01/18 03:34:49;;;;;;;45.05;26.80;;;4.00;1.00;;;;;;5010851;28;20840;-65
2021/01/18 03:37:15;;;;;;;44.88;26.58;;;4.00;1.00;;;;;;5010964;28;20413;-65
2021/01/18 03:39:42;;;;;;;46.38;28.60;;;4.00;1.00;;;;;;5011008;28;20491;-65
2021/01/18 03:42:11;;;;;;;45.90;28.40;;;3.80;1.00;;;;;;5010663;28;20433;-65
2021/01/18 03:44:37;;;;;;;42.30;26.40;;;3.80;1.00;;;;;;5010903;28;20495;-66
2021/01/18 03:47:03;;;;;;;42.30;26.20;;;3.90;44.20;;;;;;5011063;28;20413;-65
2021/01/18 03:49:29;;;;;;;35.00;25.40;;;3.90;40.60;;;;;;5011108;28;20427;-65
2021/01/18 03:51:55;;;;;;;39.80;24.70;;;3.80;1.00;;;;;;5010874;28;20420;-65
2021/01/18 03:54:21;;;;;;;35.90;25.25;;;3.80;1.00;;;;;;5010545;28;20412;-65
2021/01/18 03:56:48;;;;;;;42.35;23.95;;;3.70;1.00;;;;;;5011068;28;20455;-65
2021/01/18 03:59:15;;;;;;;31.90;21.85;;;3.80;1.00;;;;;;5010847;28;20443;-66
2021/01/18 04:01:41;;;;;;;31.17;21.83;;;3.80;1.00;;;;;;5010668;28;20424;-66
2021/01/18 04:04:07;;;;;;;34.00;20.95;;;3.80;1.00;;;;;;5010502;28;20423;-66
2021/01/18 04:06:35;;;;;;;34.13;20.35;;;3.70;1.00;;;;;;5010904;28;20412;-66
2021/01/18 04:09:01;;;;;;;30.77;20.15;;;3.70;1.00;;;;;;5010432;28;20417;-66
2021/01/18 04:11:27;;;;;;;28.17;18.80;;;3.80;1.00;;;;;;5011243;28;20555;-67
2021/01/18 04:13:54;;;;;;;32.55;21.40;;;3.80;1.00;;;;;;5010643;28;20828;-67
2021/01/18 04:16:20;;;;;;;31.67;21.57;;;3.80;99.90;;;;;;5010659;28;20417;-66
2021/01/18 04:18:46;;;;;;;37.70;24.58;;;3.80;99.90;;;;;;5010777;28;20865;-67
2021/01/18 04:21:16;;;;;;;40.30;26.92;;;3.60;99.90;;;;;;5013955;28;20932;-67
2021/01/18 04:23:42;;;;;;;40.47;26.33;;;3.70;1.00;;;;;;5015884;28;20412;-67
2021/01/18 04:26:08;;;;;;;41.10;26.00;;;3.70;1.00;;;;;;5015846;28;20424;-67
2021/01/18 04:28:34;;;;;;;48.03;28.15;;;3.80;1.00;;;;;;5016027;28;20420;-67
2021/01/18 04:31:01;;;;;;;45.47;27.85;;;3.80;1.00;;;;;;5015930;28;20413;-66
2021/01/18 04:33:27;;;;;;;44.00;28.42;;;3.80;1.00;;;;;;5018312;28;20450;-67
2021/01/18 04:35:56;;;;;;;39.60;27.90;;;3.80;1.00;;;;;;5014555;28;20420;-67
2021/01/18 04:38:22;;;;;;;46.63;29.92;;;3.90;1.00;;;;;;5013818;28;20413;-67
2021/01/18 04:40:48;;;;;;;45.35;29.90;;;3.80;1.00;;;;;;5014256;28;20419;-67
2021/01/18 04:43:15;;;;;;;49.33;30.38;;;3.80;1.00;;;;;;5014013;28;20419;-66
2021/01/18 04:45:41;;;;;;;44.72;28.08;;;3.80;1.00;;;;;;5014028;28;20412;-67
2021/01/18 04:48:09;;;;;;;47.30;29.70;;;3.90;2.70;;;;;;5014015;28;20417;-67
2021/01/18 04:50:35;;;;;;;47.37;29.43;;;3.90;1.00;;;;;;5013684;28;20537;-67
2021/01/18 04:53:08;;;;;;;41.47;29.08;;;4.00;1.00;;;;;;5013500;28;20827;-67
2021/01/18 04:55:49;;;;;;;47.53;28.58;;;4.10;1.00;;;;;;5013983;28;20424;-67
2021/01/18 04:58:17;;;;;;;41.22;26.88;;;4.00;1.00;;;;;;5013954;28;20416;-67
2021/01/18 05:00:44;;;;;;;40.08;28.13;;;4.00;1.00;;;;;;5013728;28;20412;-67
2021/01/18 05:03:13;;;;;;;39.75;28.00;;;4.00;1.00;;;;;;5001119;28;20426;-68
2021/01/18 05:06:13;;;;;;;38.10;26.20;;;4.00;1.00;;;;;;4993906;28;20418;-67
2021/01/18 05:09:12;;;;;;;34.38;24.15;;;4.00;1.00;;;;;;4992223;28;20420;-66
2021/01/18 05:11:38;;;;;;;35.45;24.40;;;4.10;1.00;;;;;;4993272;28;20899;-67
2021/01/18 05:14:05;;;;;;;36.50;25.50;;;4.10;99.90;;;;;;4993389;28;20878;-68
2021/01/18 05:16:35;;;;;;;38.20;25.83;;;4.00;99.90;;;;;;4993765;28;20490;-67
2021/01/18 05:19:08;;;;;;;37.70;25.90;;;4.00;99.90;;;;;;4993563;28;20410;-66
2021/01/18 05:21:34;;;;;;;33.60;24.37;;;4.00;99.90;;;;;;4993566;28;20974;-67
2021/01/18 05:24:00;;;;;;;34.58;24.10;;;4.00;99.90;;;;;;4993134;28;20476;-67
2021/01/18 05:26:27;;;;;;;38.55;25.38;;;3.90;99.90;;;;;;4993532;28;20751;-67
2021/01/18 05:28:55;;;;;;;32.78;24.05;;;3.90;99.90;;;;;;4993724;28;20452;-67
2021/01/18 05:31:33;;;;;;;37.58;25.10;;;3.90;99.90;;;;;;4992533;28;20422;-66
2021/01/18 05:34:00;;;;;;;37.30;25.58;;;4.00;99.90;;;;;;4992901;28;20418;-66
2021/01/18 05:36:38;;;;;;;33.80;23.02;;;4.00;99.90;;;;;;4993353;28;20508;-66
2021/01/18 05:39:13;;;;;;;32.92;24.00;;;4.00;99.90;;;;;;4993469;28;20426;-67
2021/01/18 05:41:40;;;;;;;37.47;23.75;;;4.00;99.90;;;;;;4993296;28;20426;-67
2021/01/18 05:44:07;;;;;;;32.60;23.60;;;4.00;99.90;;;;;;4993205;28;20414;-67
2021/01/18 05:46:34;;;;;;;31.67;22.90;;;4.00;99.90;;;;;;4993406;28;20426;-69
2021/01/18 05:49:09;;;;;;;31.30;23.58;;;4.00;99.90;;;;;;4992993;28;20898;-67
2021/01/18 05:51:37;;;;;;;35.10;23.92;;;3.90;99.90;;;;;;4993240;28;20418;-67
2021/01/18 05:54:06;;;;;;;34.53;23.40;;;4.00;99.90;;;;;;4992923;28;20422;-66
2021/01/18 05:56:44;;;;;;;36.63;24.03;;;4.00;99.90;;;;;;4992739;28;20462;-67
2021/01/18 05:59:19;;;;;;;37.72;23.30;;;4.10;99.90;;;;;;4992921;28;20429;-66
2021/01/18 06:01:46;;;;;;;35.05;22.50;;;4.00;82.70;;;;;;4992755;28;20445;-66
2021/01/18 06:04:14;;;;;;;32.33;22.60;;;4.00;72.00;;;;;;4992830;28;20764;-67
2021/01/18 06:06:42;;;;;;;33.83;23.58;;;4.00;99.90;;;;;;4993096;28;20468;-66
2021/01/18 06:09:09;;;;;;;34.88;24.75;;;4.00;99.90;;;;;;4992611;28;20416;-66
2021/01/18 06:11:35;;;;;;;34.10;24.10;;;4.00;99.90;;;;;;4992849;28;20577;-67
2021/01/18 06:14:03;;;;;;;36.80;25.70;;;4.00;99.90;;;;;;4992354;28;21125;-66
2021/01/18 06:16:30;;;;;;;37.97;25.70;;;4.00;99.90;;;;;;4992870;28;20422;-66
2021/01/18 06:19:07;;;;;;;38.67;26.85;;;4.00;99.90;;;;;;4992916;28;20444;-66
2021/01/18 06:21:38;;;;;;;43.35;27.02;;;3.90;99.90;;;;;;4992625;28;20470;-67
2021/01/18 06:24:19;;;;;;;35.60;26.77;;;3.90;99.90;;;;;;4992180;28;20511;-70
2021/01/18 06:26:45;;;;;;;37.70;25.52;;;3.90;99.90;;;;;;4989313;28;20430;-70
2021/01/18 06:32:34;;;;;;;37.78;26.27;;;3.90;99.90;;;;;;4910810;28;20419;-69
2021/01/18 06:35:03;;;;;;;34.65;25.05;;;3.90;99.90;;;;;;4992022;28;20422;-68
2021/01/18 06:37:32;;;;;;;36.00;25.97;;;3.90;99.90;;;;;;4992245;28;20429;-70
2021/01/18 06:40:01;;;;;;;40.38;25.25;;;3.90;99.90;;;;;;4992023;28;20415;-67
2021/01/18 06:42:27;;;;;;;36.40;24.13;;;3.90;99.90;;;;;;4992014;28;20474;-70
2021/01/18 06:44:54;;;;;;;36.30;24.23;;;4.00;99.90;;;;;;4991491;28;20425;-69
2021/01/18 06:47:27;;;;;;;36.57;24.07;;;4.00;99.90;;;;;;4992074;28;20447;-69
2021/01/18 06:52:30;;;;;;;41.83;26.25;;;3.90;99.90;;;;;;5088542;23;20428;-67
2021/01/18 06:55:03;;;;;;;41.20;26.77;;;3.80;99.90;;;;;;5011698;28;20412;-67
2021/01/18 06:57:41;;;;;;;41.25;26.75;;;3.80;99.90;;;;;;5011841;28;20457;-66
2021/01/18 07:05:32;;;;;;;36.03;24.45;;;3.80;99.90;;;;;;946160;23;20779;-67
2021/01/18 07:08:10;;;;;;;43.38;27.63;;;3.80;99.90;;;;;;4991262;28;20433;-65
2021/01/18 07:10:44;;;;;;;36.45;25.80;;;3.80;99.90;;;;;;4991874;28;20437;-65
2021/01/18 07:13:10;;;;;;;47.97;28.45;;;3.80;99.90;;;;;;4991506;28;20417;-65
2021/01/18 07:15:40;;;;;;;46.55;27.63;;;3.80;99.90;;;;;;4991660;28;20449;-65
2021/01/18 07:18:08;;;;;;;47.95;28.92;;;3.80;1.00;;;;;;4991699;28;20493;-65
2021/01/18 07:20:40;;;;;;;40.53;27.77;;;3.80;1.00;;;;;;4991477;28;20422;-65
2021/01/18 07:23:26;;;;;;;45.33;28.15;;;3.80;1.00;;;;;;4991574;28;20474;-65
2021/01/18 07:26:16;;;;;;;42.17;27.38;;;3.80;1.00;;;;;;4991842;28;20553;-65
2021/01/18 07:28:53;;;;;;;43.65;27.80;;;3.80;1.00;;;;;;5000497;28;20429;-68
2021/01/18 07:31:20;;;;;;;43.13;26.92;;;3.80;1.00;;;;;;5317003;23;20440;-69
2021/01/18 07:33:46;;;;;;;53.60;30.33;;;3.80;1.00;;;;;;5010934;28;20832;-69
2021/01/18 07:36:23;;;;;;;51.85;28.05;;;4.20;99.90;;;;;;5011197;28;20913;-68
2021/01/18 07:38:49;;;;;;;41.97;25.00;;;4.60;1.00;;;;;;5011065;28;20420;-69
2021/01/18 07:41:20;;;;;;;32.58;22.85;;;4.60;99.90;;;;;;5010857;28;20432;-67
2021/01/18 07:43:48;;;;;;;35.63;23.27;;;4.60;1.00;;;;;;5010519;28;20460;-67
2021/01/18 07:46:36;;;;;;;35.63;23.15;;;4.40;1.00;;;;;;5010904;28;20504;-68
2021/01/18 07:54:03;;;;;;;40.33;23.50;;;4.10;99.90;;;;;;4101353;26;20450;-68
2021/01/18 07:56:32;;;;;;;36.28;22.42;;;4.20;99.90;;;;;;4993876;28;20484;-70
2021/01/18 07:58:59;;;;;;;29.48;21.38;;;4.10;99.90;;;;;;4995595;28;20421;-70
2021/01/18 08:01:28;;;;;;;30.88;20.88;;;4.00;99.90;;;;;;4995081;28;20516;-68
2021/01/18 08:04:14;;;;;;;31.40;20.85;;;3.90;99.90;;;;;;4995138;28;20863;-70
2021/01/18 08:07:00;;;;;;;36.42;21.95;;;3.80;1.00;;;;;;4994424;28;20888;-69
2021/01/18 08:09:27;;;;;;;34.73;21.80;;;3.70;1.00;;;;;;4995370;28;20446;-69
2021/01/18 08:11:54;;;;;;;37.35;23.02;;;3.80;99.90;;;;;;4994975;28;20776;-69
2021/01/18 08:14:21;;;;;;;33.78;22.27;;;3.80;99.90;;;;;;4994829;28;20426;-69
2021/01/18 08:16:54;;;;;;;28.05;20.58;;;3.80;99.90;;;;;;4994844;28;20434;-68
2021/01/18 08:19:39;;;;;;;33.50;19.50;;;4.00;99.90;;;;;;4994939;28;20914;-67
2021/01/18 08:22:07;;;;;;;35.17;21.60;;;3.90;99.90;;;;;;4995094;28;20425;-69
2021/01/18 08:24:53;;;;;;;39.35;23.88;;;3.90;99.90;;;;;;4994567;28;20426;-67
2021/01/18 08:27:46;;;;;;;37.67;24.35;;;3.80;72.00;;;;;;4994320;28;20913;-66
2021/01/18 08:30:27;;;;;;;38.00;23.77;;;3.80;97.90;;;;;;4994959;28;20511;-66
2021/01/18 08:32:55;;;;;;;40.30;25.08;;;3.80;99.90;;;;;;4995286;28;20418;-66
2021/01/18 08:35:29;;;;;;;39.27;22.63;;;3.90;99.90;;;;;;4994849;28;20472;-67
2021/01/18 08:37:58;;;;;;;36.25;22.92;;;3.90;99.90;;;;;;4994532;28;20910;-67
2021/01/18 08:40:32;;;;;;;29.73;20.90;;;4.00;99.90;;;;;;4994739;28;20509;-67
2021/01/18 08:43:01;;;;;;;28.13;20.05;;;3.90;99.90;;;;;;4994662;28;20430;-69
2021/01/18 08:45:29;;;;;;;32.42;21.60;;;3.90;99.90;;;;;;4994071;28;20461;-69
2021/01/18 08:47:57;;;;;;;31.60;20.40;;;4.00;99.90;;;;;;4994496;28;20822;-68
2021/01/18 08:50:26;;;;;;;31.33;20.98;;;4.00;99.90;;;;;;4994228;28;20418;-66
2021/01/18 08:52:53;;;;;;;37.58;21.75;;;4.10;99.90;;;;;;4994970;28;20414;-67
2021/01/18 08:55:52;;;;;;;28.52;18.70;;;4.20;99.90;;;;;;4994377;28;20422;-68
2021/01/18 08:58:39;;;;;;;31.67;19.73;;;4.30;99.90;;;;;;4986254;28;20506;-68
2021/01/18 09:01:12;;;;;;;30.40;18.30;;;4.30;3.50;;;;;;4994701;28;20410;-68
2021/01/18 09:03:38;;;;;;;24.83;17.27;;;4.20;1.00;;;;;;4994068;28;20425;-66
2021/01/18 09:06:05;;;;;;;31.65;18.40;;;4.30;1.00;;;;;;4994148;28;20422;-65
2021/01/18 09:08:31;;;;;;;28.05;17.08;;;4.50;1.00;;;;;;4994532;28;20871;-65
2021/01/18 09:10:59;;;;;;;24.40;16.23;;;4.40;99.90;;;;;;4994079;28;20925;-64
2021/01/18 09:13:28;;;;;;;23.83;16.70;;;4.50;99.90;;;;;;4994495;28;20801;-64
2021/01/18 09:15:56;;;;;;;26.52;15.57;;;4.40;1.00;;;;;;4993849;28;20445;-64
2021/01/18 09:18:23;;;;;;;21.67;15.50;;;4.30;1.00;;;;;;4993637;28;20890;-66
2021/01/18 09:20:50;;;;;;;24.50;16.77;;;4.30;61.50;;;;;;4994058;28;20426;-67
2021/01/18 09:23:17;;;;;;;27.33;17.30;;;4.20;19.10;;;;;;4994347;28;20434;-66
2021/01/18 09:25:44;;;;;;;28.25;17.15;;;4.40;99.90;;;;;;4993447;28;20418;-68
2021/01/18 09:28:12;;;;;;;25.40;16.85;;;4.40;61.30;;;;;;4993833;28;20427;-63
2021/01/18 09:30:39;;;;;;;27.48;17.00;;;4.50;1.00;;;;;;4993860;28;20414;-63
2021/01/18 09:33:08;;;;;;;29.90;18.48;;;4.40;1.00;;;;;;4994028;28;20414;-63
2021/01/18 09:35:36;;;;;;;29.13;19.35;;;4.50;1.00;;;;;;4993544;28;20417;-62
2021/01/18 09:38:03;;;;;;;31.90;20.30;;;4.40;99.90;;;;;;4993593;28;20488;-64
2021/01/18 09:40:30;;;;;;;29.98;20.35;;;4.40;1.00;;;;;;4993303;28;20418;-63
2021/01/18 09:42:57;;;;;;;31.50;18.70;;;4.40;1.00;;;;;;4993815;28;20434;-64
2021/01/18 09:45:25;;;;;;;29.75;19.15;;;4.30;99.90;;;;;;4993263;28;20419;-63
2021/01/18 09:47:53;;;;;;;30.33;19.25;;;4.30;1.00;;;;;;4993560;28;20461;-63
2021/01/18 09:50:22;;;;;;;30.47;19.30;;;4.40;96.10;;;;;;4993325;28;20426;-66
2021/01/18 09:52:49;;;;;;;32.97;18.58;;;4.40;1.00;;;;;;4992318;28;20423;-65
2021/01/18 09:55:21;;;;;;;32.63;20.45;;;4.40;1.00;;;;;;4991925;28;20425;-67
2021/01/18 09:57:52;;;;;;;29.38;17.60;;;4.50;1.00;;;;;;4989031;28;20465;-70
2021/01/18 10:00:22;;;;;;;30.00;18.08;;;4.50;1.00;;;;;;4993343;28;20776;-70
2021/01/18 10:02:50;;;;;;;29.42;19.67;;;4.50;1.00;;;;;;4994933;28;21075;-69
2021/01/18 10:05:37;;;;;;;31.35;19.13;;;4.50;1.00;;;;;;4992615;28;20429;-70
2021/01/18 10:08:10;;;;;;;28.33;19.67;;;4.60;1.00;;;;;;4990796;28;20477;-70
2021/01/18 10:10:44;;;;;;;34.35;19.98;;;4.60;99.90;;;;;;4993871;28;20473;-69
2021/01/18 10:13:14;;;;;;;33.05;20.20;;;4.50;99.90;;;;;;4993141;28;20407;-69
2021/01/18 10:15:40;;;;;;;27.17;18.15;;;4.60;99.90;;;;;;4993721;28;20922;-68
2021/01/18 10:18:06;;;;;;;27.63;17.50;;;4.60;99.90;;;;;;4993439;28;20422;-69
2021/01/18 10:20:33;;;;;;;30.65;17.95;;;4.60;99.90;;;;;;4995094;28;20422;-67
2021/01/18 10:22:59;;;;;;;25.73;16.65;;;4.70;96.10;;;;;;4994245;28;20836;-68
2021/01/18 10:25:27;;;;;;;25.52;16.40;;;4.70;22.70;;;;;;4994490;28;20441;-68
2021/01/18 10:27:55;;;;;;;30.02;16.83;;;4.80;1.00;;;;;;4992865;28;20903;-67
2021/01/18 10:30:23;;;;;;;31.15;16.98;;;4.90;1.00;;;;;;4992538;28;20460;-67
2021/01/18 10:32:51;;;;;;;26.98;16.88;;;4.90;1.00;;;;;;4992647;28;20784;-67
2021/01/18 10:35:29;;;;;;;24.45;17.23;;;5.00;99.90;;;;;;4992757;28;20461;-67
2021/01/18 10:38:17;;;;;;;27.13;14.32;;;5.10;99.90;;;;;;4992270;28;20783;-68
2021/01/18 10:40:59;;;;;;;26.35;15.13;;;5.10;1.00;;;;;;4991861;28;20425;-69
2021/01/18 10:43:28;;;;;;;22.52;15.63;;;4.90;1.00;;;;;;4992880;28;20770;-68
2021/01/18 10:45:55;;;;;;;22.48;15.95;;;5.00;1.00;;;;;;4992894;28;20418;-68
2021/01/18 10:48:27;;;;;;;24.17;16.60;;;5.00;99.90;;;;;;4993646;28;20430;-67
2021/01/18 10:50:56;;;;;;;34.88;17.75;;;5.00;1.00;;;;;;4994688;28;20449;-69
2021/01/18 10:53:27;;;;;;;26.10;16.85;;;5.00;99.90;;;;;;4994746;28;20481;-69
2021/01/18 10:56:10;;;;;;;25.65;15.55;;;4.90;99.90;;;;;;4999139;28;20423;-68
2021/01/18 10:58:37;;;;;;;25.80;16.08;;;4.80;99.90;;;;;;4991986;28;20446;-69
2021/01/18 11:01:08;;;;;;;25.88;16.10;;;4.90;99.90;;;;;;4992013;28;20503;-68
2021/01/18 11:03:35;;;;;;;21.95;15.02;;;4.80;99.90;;;;;;4991669;28;20427;-68
2021/01/18 11:06:10;;;;;;;21.30;15.05;;;4.80;99.90;;;;;;4992269;28;20528;-66
2021/01/18 11:08:37;;;;;;;22.58;13.80;;;4.80;99.90;;;;;;4992345;28;20418;-66
2021/01/18 11:11:16;;;;;;;17.10;13.38;;;4.90;99.90;;;;;;4992826;28;20426;-66
2021/01/18 11:13:42;;;;;;;21.13;13.15;;;4.90;99.90;;;;;;4992509;28;20418;-67
2021/01/18 11:16:12;;;;;;;18.80;13.90;;;4.90;51.50;;;;;;4992428;28;20414;-68
2021/01/18 11:18:38;;;;;;;17.60;12.47;;;5.00;1.00;;;;;;4992560;28;20418;-66
2021/01/18 11:21:05;;;;;;;15.80;12.03;;;5.10;1.00;;;;;;4992320;28;20418;-66
2021/01/18 11:23:32;;;;;;;18.33;11.40;;;5.20;99.90;;;;;;4993092;28;20422;-69
2021/01/18 11:25:59;;;;;;;17.45;10.10;;;5.30;99.90;;;;;;4993491;28;20774;-69
2021/01/18 11:28:26;;;;;;;15.70;9.65;;;5.20;1.00;;;;;;4994635;28;20919;-70
2021/01/18 11:30:53;;;;;;;17.40;10.10;;;5.20;1.00;;;;;;4997975;28;20898;-69
2021/01/18 11:33:19;;;;;;;17.60;9.82;;;5.40;1.00;;;;;;4994324;28;20920;-68
2021/01/18 11:35:47;;;;;;;19.65;10.18;;;5.50;99.90;;;;;;4995126;28;20480;-66
2021/01/18 11:38:14;;;;;;;15.32;9.73;;;5.60;99.90;;;;;;4992164;28;20434;-67
2021/01/18 11:40:41;;;;;;;16.63;8.65;;;5.80;99.90;;;;;;4992285;28;20422;-66
2021/01/18 11:43:09;;;;;;;14.13;8.90;;;5.70;99.90;;;;;;4992854;28;20430;-68
2021/01/18 11:45:35;;;;;;;11.85;8.70;;;5.70;99.90;;;;;;4990987;28;20427;-67
2021/01/18 11:48:02;;;;;;;14.20;8.77;;;5.70;99.90;;;;;;4991675;28;20418;-66
2021/01/18 11:50:30;;;;;;;13.23;8.40;;;5.70;16.30;;;;;;4991466;28;20795;-66
2021/01/18 11:52:56;;;;;;;13.98;8.43;;;5.60;99.90;;;;;;4991321;28;20476;-63
2021/01/18 11:55:22;;;;;;;13.13;8.43;;;5.60;99.90;;;;;;4990845;28;20451;-66
2021/01/18 11:57:50;;;;;;;17.13;8.88;;;5.60;99.90;;;;;;4990683;28;20431;-66
2021/01/18 12:00:21;;;;;;;12.65;8.38;;;5.60;1.00;;;;;;4990741;28;20926;-66
2021/01/18 12:02:47;;;;;;;13.55;8.68;;;5.60;99.90;;;;;;4991318;28;20433;-67
2021/01/18 12:05:13;;;;;;;13.50;7.95;;;5.60;99.90;;;;;;4990644;28;20457;-67
2021/01/18 12:07:40;;;;;;;15.85;7.63;;;5.70;99.90;;;;;;4990516;28;20895;-66
2021/01/18 12:10:07;;;;;;;17.02;8.02;;;5.70;99.90;;;;;;4991287;28;20418;-68
2021/01/18 12:12:34;;;;;;;14.40;8.85;;;5.60;1.00;;;;;;4990958;28;20410;-68
2021/01/18 12:15:00;;;;;;;12.20;7.90;;;5.70;89.70;;;;;;4991355;28;20419;-64
2021/01/18 12:17:28;;;;;;;11.18;6.55;;;5.70;1.00;;;;;;4992262;28;20421;-67
2021/01/18 12:19:54;;;;;;;12.70;7.00;;;5.60;1.00;;;;;;4994716;28;20440;-66
2021/01/18 12:22:20;;;;;;;15.35;7.05;;;5.70;1.00;;;;;;5000304;28;20437;-68
2021/01/18 12:24:46;;;;;;;9.88;6.50;;;5.60;1.00;;;;;;4995599;28;20767;-67
2021/01/18 12:27:12;;;;;;;9.75;6.40;;;5.80;1.00;;;;;;4990828;28;20429;-67
2021/01/18 12:29:38;;;;;;;9.90;6.43;;;5.80;99.90;;;;;;4990859;28;20418;-67
2021/01/18 12:32:05;;;;;;;11.95;6.40;;;5.90;99.90;;;;;;4991085;28;20418;-64
2021/01/18 12:34:32;;;;;;;10.32;6.20;;;5.90;99.90;;;;;;4991879;28;20414;-64
2021/01/18 12:36:58;;;;;;;12.17;6.60;;;6.00;99.90;;;;;;4992375;28;20463;-64
2021/01/18 12:39:25;;;;;;;10.60;6.00;;;5.80;37.00;;;;;;4993289;28;20418;-65
2021/01/18 12:41:52;;;;;;;12.35;5.85;;;5.70;99.90;;;;;;4996171;28;20426;-67
2021/01/18 12:44:18;;;;;;;13.20;6.18;;;5.80;99.90;;;;;;4997505;28;20826;-67
2021/01/18 12:46:46;;;;;;;11.95;6.35;;;5.90;99.90;;;;;;4995606;28;20418;-66
2021/01/18 12:49:12;;;;;;;11.27;6.10;;;5.70;99.90;;;;;;4994038;28;20457;-67
2021/01/18 12:51:39;;;;;;;8.93;5.53;;;5.70;1.00;;;;;;4994531;28;20422;-68
2021/01/18 12:54:05;;;;;;;10.00;5.65;;;5.70;99.90;;;;;;4993805;28;20423;-67
2021/01/18 12:56:33;;;;;;;12.98;6.70;;;5.70;99.90;;;;;;4994412;28;20410;-67
2021/01/18 12:58:59;;;;;;;12.70;6.80;;;5.70;99.90;;;;;;4994945;28;20845;-67
2021/01/18 13:01:29;;;;;;;10.65;6.00;;;5.80;99.90;;;;;;4994941;28;20414;-69
2021/01/18 13:03:56;;;;;;;11.98;6.93;;;5.80;99.90;;;;;;4995361;28;20790;-67
2021/01/18 13:06:22;;;;;;;9.20;5.68;;;5.70;99.90;;;;;;4994916;28;20419;-66
2021/01/18 13:08:49;;;;;;;12.65;7.10;;;5.70;92.00;;;;;;4993712;28;20419;-65
2021/01/18 13:11:15;;;;;;;11.60;6.88;;;5.60;99.90;;;;;;4994039;28;20818;-65
2021/01/18 13:13:44;;;;;;;9.93;5.78;;;5.70;99.90;;;;;;4993897;28;20421;-65